createdAt,value
2023-05-08T00:00:46.763Z,98494.15
2023-05-08T00:03:18.091Z,98494.68
2023-05-08T00:05:48.069Z,98492.31
2023-05-08T00:08:17.842Z,98492.28
2023-05-08T00:10:48.528Z,98494.15
2023-05-08T00:13:18.529Z,98492.04
2023-05-08T00:15:48.387Z,98491.30
2023-05-08T00:18:18.112Z,98489.70
2023-05-08T00:21:08.249Z,98490.02
2023-05-08T00:23:41.510Z,98490.94
2023-05-08T00:26:13.217Z,98499.52
2023-05-08T00:28:45.649Z,98498.66
2023-05-08T00:31:15.833Z,98496.27
2023-05-08T00:33:45.781Z,98494.02
2023-05-08T00:36:15.997Z,98493.10
2023-05-08T00:38:45.938Z,98495.30
2023-05-08T00:41:16.307Z,98497.70
2023-05-08T00:43:46.278Z,98503.02
2023-05-08T00:46:16.152Z,98505.60
2023-05-08T00:48:47.583Z,98503.04
2023-05-08T00:51:19.667Z,98503.20
2023-05-08T00:53:50.315Z,98509.34
2023-05-08T00:56:21.336Z,98510.54
2023-05-08T00:58:51.859Z,98513.30
2023-05-08T01:01:23.311Z,98515.69
2023-05-08T01:03:53.820Z,98517.55
2023-05-08T01:06:23.710Z,98521.77
2023-05-08T01:08:53.730Z,98520.66
2023-05-08T01:11:29.688Z,98525.98
2023-05-08T01:14:12.847Z,98529.55
2023-05-08T01:16:47.071Z,98529.45
2023-05-08T01:19:42.754Z,98529.46
2023-05-08T01:22:21.824Z,98530.78
2023-05-08T01:25:18.472Z,98530.67
2023-05-08T01:28:14.106Z,98536.48
2023-05-08T01:31:03.812Z,98537.25
2023-05-08T01:33:43.677Z,98536.88
2023-05-08T01:36:25.447Z,98539.77
2023-05-08T01:39:07.556Z,98535.54
2023-05-08T01:41:39.712Z,98537.27
2023-05-08T01:44:16.144Z,98539.79
2023-05-08T01:46:50.820Z,98540.00
2023-05-08T01:49:25.840Z,98538.78
2023-05-08T01:52:00.891Z,98540.16
2023-05-08T01:54:39.823Z,98542.86
2023-05-08T01:57:17.664Z,98542.54
2023-05-08T01:59:50.143Z,98540.82
2023-05-08T02:02:21.227Z,98540.33
2023-05-08T02:04:52.657Z,98547.29
2023-05-08T02:07:25.052Z,98548.12
2023-05-08T02:09:58.439Z,98547.61
2023-05-08T02:12:30.202Z,98545.71
2023-05-08T02:15:01.657Z,98542.77
2023-05-08T02:17:32.724Z,98539.46
2023-05-08T02:20:04.196Z,98541.71
2023-05-08T02:22:35.372Z,98539.77
2023-05-08T02:25:07.000Z,98543.05
2023-05-08T02:27:37.777Z,98546.35
2023-05-08T02:30:11.260Z,98547.66
2023-05-08T02:32:44.456Z,98547.23
2023-05-08T02:35:17.320Z,98549.73
2023-05-08T02:37:49.833Z,98552.02
2023-05-08T02:40:25.587Z,98547.10
2023-05-08T02:42:56.177Z,98547.48
2023-05-08T02:45:31.631Z,98547.48
2023-05-08T02:48:11.562Z,98547.88
2023-05-08T02:50:47.951Z,98549.89
2023-05-08T02:53:25.985Z,98550.80
2023-05-08T02:56:02.982Z,98553.83
2023-05-08T02:58:38.816Z,98554.42
2023-05-08T03:01:14.754Z,98557.85
2023-05-08T03:03:47.031Z,98561.38
2023-05-08T03:06:22.152Z,98564.77
2023-05-08T03:08:56.486Z,98564.77
2023-05-08T03:11:35.649Z,98567.64
2023-05-08T03:14:10.677Z,98569.70
2023-05-08T03:16:43.620Z,98570.20
2023-05-08T03:19:16.185Z,98573.16
2023-05-08T03:21:47.801Z,98571.38
2023-05-08T03:24:20.848Z,98573.54
2023-05-08T03:26:51.293Z,98577.19
2023-05-08T03:29:22.392Z,98576.91
2023-05-08T03:31:54.064Z,98578.31
2023-05-08T03:34:25.527Z,98582.88
2023-05-08T03:36:56.079Z,98584.11
2023-05-08T03:39:29.365Z,98581.38
2023-05-08T03:41:59.649Z,98582.70
2023-05-08T03:44:32.633Z,98583.95
2023-05-08T03:47:04.629Z,98585.27
2023-05-08T03:49:35.574Z,98583.70
2023-05-08T03:52:06.191Z,98587.19
2023-05-08T03:54:36.205Z,98589.04
2023-05-08T03:57:06.759Z,98591.39
2023-05-08T03:59:47.539Z,98592.17
2023-05-08T04:02:26.399Z,98592.41
2023-05-08T04:05:06.141Z,98594.62
2023-05-08T04:07:42.333Z,98596.95
2023-05-08T04:10:21.174Z,98599.86
2023-05-08T04:12:59.096Z,98604.31
2023-05-08T04:15:33.284Z,98601.65
2023-05-08T04:18:07.403Z,98606.25
2023-05-08T04:20:41.637Z,98608.12
2023-05-08T04:23:17.375Z,98607.11
2023-05-08T04:25:49.106Z,98610.88
2023-05-08T04:28:19.951Z,98616.64
2023-05-08T04:30:51.626Z,98621.92
2023-05-08T04:33:22.132Z,98622.55
2023-05-08T04:35:52.757Z,98629.05
2023-05-08T04:38:22.889Z,98628.45
2023-05-08T04:40:53.328Z,98625.80
2023-05-08T04:43:23.833Z,98623.73
2023-05-08T04:45:54.268Z,98625.52
2023-05-08T04:48:24.625Z,98623.45
2023-05-08T04:50:54.510Z,98627.05
2023-05-08T04:53:24.802Z,98630.89
2023-05-08T04:55:55.286Z,98633.46
2023-05-08T04:58:25.718Z,98637.26
2023-05-08T05:00:56.753Z,98642.13
2023-05-08T05:03:27.199Z,98641.20
2023-05-08T05:06:00.446Z,98642.02
2023-05-08T05:08:32.636Z,98645.55
2023-05-08T05:11:02.557Z,98641.02
2023-05-08T05:13:32.550Z,98649.42
2023-05-08T05:16:02.489Z,98650.70
2023-05-08T05:18:35.958Z,98654.95
2023-05-08T05:21:05.495Z,98656.91
2023-05-08T05:23:35.783Z,98663.38
2023-05-08T05:26:08.672Z,98666.27
2023-05-08T05:28:38.805Z,98668.23
2023-05-08T05:31:09.372Z,98667.98
2023-05-08T05:33:39.753Z,98675.90
2023-05-08T05:36:10.163Z,98673.30
2023-05-08T05:38:40.113Z,98678.34
2023-05-08T05:41:10.477Z,98681.83
2023-05-08T05:43:40.490Z,98688.11
2023-05-08T05:46:10.961Z,98689.50
2023-05-08T05:48:41.788Z,98697.66
2023-05-08T05:51:12.928Z,98698.85
2023-05-08T05:53:43.435Z,98700.70
2023-05-08T05:56:13.549Z,98696.91
2023-05-08T05:58:45.138Z,98695.54
2023-05-08T06:01:16.959Z,98690.91
2023-05-08T06:03:47.053Z,98687.54
2023-05-08T06:06:17.199Z,98685.41
2023-05-08T06:08:48.190Z,98689.96
2023-05-08T06:11:18.459Z,98694.17
2023-05-08T06:13:49.824Z,98693.97
2023-05-08T06:16:22.986Z,98695.20
2023-05-08T06:18:53.222Z,98698.10
2023-05-08T06:21:23.082Z,98697.05
2023-05-08T06:23:56.278Z,98694.34
2023-05-08T06:26:29.582Z,98698.64
2023-05-08T06:28:59.692Z,98692.33
2023-05-08T06:31:30.005Z,98691.42
2023-05-08T06:34:00.548Z,98694.73
2023-05-08T06:36:33.271Z,98692.79
2023-05-08T06:39:04.393Z,98692.55
2023-05-08T06:41:34.500Z,98690.42
2023-05-08T06:44:04.650Z,98692.73
2023-05-08T06:46:34.532Z,98695.77
2023-05-08T06:49:04.701Z,98695.27
2023-05-08T06:51:35.340Z,98697.77
2023-05-08T06:54:11.190Z,98698.59
2023-05-08T06:56:41.145Z,98700.41
2023-05-08T06:59:12.781Z,98702.64
2023-05-08T07:01:42.917Z,98709.27
2023-05-08T07:04:13.794Z,98714.52
2023-05-08T07:06:43.784Z,98717.59
2023-05-08T07:09:13.881Z,98723.51
2023-05-08T07:11:44.252Z,98728.29
2023-05-08T07:14:14.703Z,98730.40
2023-05-08T07:16:44.818Z,98722.81
2023-05-08T07:19:15.071Z,98726.73
2023-05-08T07:21:46.246Z,98726.69
2023-05-08T07:24:16.903Z,98731.33
2023-05-08T07:26:47.201Z,98728.30
2023-05-08T07:29:17.649Z,98731.41
2023-05-08T07:31:51.376Z,98730.16
2023-05-08T07:34:20.268Z,98736.63
2023-05-08T07:36:50.260Z,98734.64
2023-05-08T07:39:20.513Z,98735.91
2023-05-08T07:41:50.706Z,98735.64
2023-05-08T07:44:21.010Z,98731.83
2023-05-08T07:46:51.373Z,98726.70
2023-05-08T07:49:21.641Z,98725.62
2023-05-08T07:51:52.343Z,98722.05
2023-05-08T07:54:22.628Z,98724.27
2023-05-08T07:56:52.617Z,98723.23
2023-05-08T07:59:22.936Z,98725.13
2023-05-08T08:01:52.986Z,98729.43
2023-05-08T08:04:24.030Z,98730.27
2023-05-08T08:06:54.162Z,98728.17
2023-05-08T08:09:24.315Z,98721.39
2023-05-08T08:11:57.671Z,98723.20
2023-05-08T08:14:29.034Z,98715.45
2023-05-08T08:16:59.191Z,98716.35
2023-05-08T08:19:29.363Z,98715.01
2023-05-08T08:21:59.359Z,98718.36
2023-05-08T08:24:30.048Z,98720.56
2023-05-08T08:27:00.157Z,98721.19
2023-05-08T08:29:30.591Z,98725.35
2023-05-08T08:32:01.170Z,98729.92
2023-05-08T08:34:33.386Z,98734.71
2023-05-08T08:37:05.953Z,98738.77
2023-05-08T08:39:36.178Z,98737.25
2023-05-08T08:42:08.539Z,98739.90
2023-05-08T08:44:40.043Z,98743.51
2023-05-08T08:47:12.859Z,98743.67
2023-05-08T08:49:48.608Z,98740.41
2023-05-08T08:52:31.425Z,98741.27
2023-05-08T08:55:03.071Z,98738.19
2023-05-08T08:57:37.477Z,98736.59
2023-05-08T09:00:08.020Z,98742.73
2023-05-08T09:02:38.743Z,98741.77
2023-05-08T09:05:13.023Z,98745.91
2023-05-08T09:07:44.334Z,98749.17
2023-05-08T09:10:15.602Z,98749.36
2023-05-08T09:12:45.708Z,98754.38
2023-05-08T09:15:16.321Z,98748.48
2023-05-08T09:17:46.653Z,98744.52
2023-05-08T09:20:17.350Z,98745.70
2023-05-08T09:22:49.151Z,98748.26
2023-05-08T09:25:19.247Z,98753.64
2023-05-08T09:27:49.522Z,98752.64
2023-05-08T09:30:20.038Z,98755.88
2023-05-08T09:32:50.752Z,98755.39
2023-05-08T09:35:20.847Z,98758.49
2023-05-08T09:37:50.966Z,98759.38
2023-05-08T09:40:22.936Z,98758.16
2023-05-08T09:42:53.163Z,98760.59
2023-05-08T09:45:30.948Z,98757.31
2023-05-08T09:48:01.568Z,98761.63
2023-05-08T09:50:32.830Z,98762.48
2023-05-08T09:53:03.050Z,98762.15
2023-05-08T09:55:48.309Z,98759.88
2023-05-08T09:58:18.650Z,98762.28
2023-05-08T10:00:48.814Z,98759.34
2023-05-08T10:03:20.026Z,98760.38
2023-05-08T10:05:50.311Z,98757.81
2023-05-08T10:08:22.618Z,98751.23
2023-05-08T10:10:52.902Z,98749.58
2023-05-08T10:13:23.782Z,98745.21
2023-05-08T10:15:57.580Z,98740.33
2023-05-08T10:18:35.749Z,98742.11
2023-05-08T10:21:08.407Z,98744.33
2023-05-08T10:23:40.562Z,98746.36
2023-05-08T10:26:14.732Z,98748.34
2023-05-08T10:28:50.811Z,98746.75
2023-05-08T10:31:22.492Z,98746.23
2023-05-08T10:33:55.227Z,98748.82
2023-05-08T10:36:30.354Z,98749.01
2023-05-08T10:39:07.285Z,98749.37
2023-05-08T10:41:39.004Z,98751.66
2023-05-08T10:44:10.554Z,98747.88
2023-05-08T10:46:49.946Z,98747.33
2023-05-08T10:49:29.155Z,98739.40
2023-05-08T10:52:12.388Z,98739.31
2023-05-08T10:55:05.876Z,98738.28
2023-05-08T10:57:35.972Z,98740.06
2023-05-08T11:00:08.364Z,98730.73
2023-05-08T11:02:38.647Z,98734.86
2023-05-08T11:05:18.333Z,98733.45
2023-05-08T11:08:14.793Z,98722.96
2023-05-08T11:10:49.072Z,98724.37
2023-05-08T11:13:20.290Z,98724.08
2023-05-08T11:15:55.157Z,98725.06
2023-05-08T11:18:28.077Z,98722.01
2023-05-08T11:21:04.147Z,98722.95
2023-05-08T11:23:35.299Z,98714.92
2023-05-08T11:26:06.989Z,98714.48
2023-05-08T11:28:39.862Z,98707.72
2023-05-08T11:31:10.660Z,98706.45
2023-05-08T11:33:40.914Z,98702.77
2023-05-08T11:36:18.985Z,98701.55
2023-05-08T11:39:08.017Z,98702.11
2023-05-08T11:41:38.943Z,98704.95
2023-05-08T11:44:21.118Z,98707.73
2023-05-08T11:46:55.872Z,98708.75
2023-05-08T11:49:29.832Z,98705.44
2023-05-08T11:52:01.132Z,98707.62
2023-05-08T11:54:32.611Z,98705.77
2023-05-08T11:57:03.159Z,98708.80
2023-05-08T11:59:37.737Z,98707.00
2023-05-08T12:02:09.760Z,98714.50
2023-05-08T12:04:47.297Z,98717.96
2023-05-08T12:07:18.528Z,98716.46
2023-05-08T12:09:49.021Z,98713.16
2023-05-08T12:12:19.469Z,98717.70
2023-05-08T12:14:52.228Z,98704.12
2023-05-08T12:17:22.974Z,98705.73
2023-05-08T12:19:58.879Z,98707.94
2023-05-08T12:22:32.094Z,98707.10
2023-05-08T12:25:03.543Z,98710.50
2023-05-08T12:27:34.293Z,98705.58
2023-05-08T12:30:09.021Z,98704.08
2023-05-08T12:32:40.762Z,98695.14
2023-05-08T12:35:13.007Z,98688.92
2023-05-08T12:37:45.481Z,98691.52
2023-05-08T12:40:27.826Z,98689.41
2023-05-08T12:43:00.753Z,98688.27
2023-05-08T12:45:33.338Z,98695.33
2023-05-08T12:48:06.173Z,98692.02
2023-05-08T12:50:37.917Z,98690.85
2023-05-08T12:53:09.833Z,98692.14
2023-05-08T12:55:41.244Z,98690.42
2023-05-08T12:58:15.073Z,98690.86
2023-05-08T13:00:46.937Z,98692.27
2023-05-08T13:03:24.948Z,98690.70
2023-05-08T13:05:56.500Z,98690.55
2023-05-08T13:08:33.389Z,98689.39
2023-05-08T13:11:05.041Z,98689.48
2023-05-08T13:13:37.294Z,98689.21
2023-05-08T13:16:08.311Z,98687.19
2023-05-08T13:18:38.736Z,98687.05
2023-05-08T13:21:08.764Z,98685.02
2023-05-08T13:23:50.646Z,98691.12
2023-05-08T13:26:21.705Z,98690.44
2023-05-08T13:28:54.559Z,98687.80
2023-05-08T13:31:26.147Z,98687.73
2023-05-08T13:33:57.222Z,98687.14
2023-05-08T13:36:27.093Z,98689.40
2023-05-08T13:38:57.205Z,98690.27
2023-05-08T13:41:27.390Z,98686.24
2023-05-08T13:43:57.319Z,98686.84
2023-05-08T13:46:27.658Z,98683.50
2023-05-08T13:48:57.693Z,98676.88
2023-05-08T13:51:27.792Z,98686.77
2023-05-08T13:53:57.680Z,98684.23
2023-05-08T13:56:28.068Z,98676.83
2023-05-08T13:58:58.471Z,98679.55
2023-05-08T14:01:28.495Z,98668.29
2023-05-08T14:03:58.788Z,98666.00
2023-05-08T14:06:28.922Z,98670.59
2023-05-08T14:08:58.847Z,98672.64
2023-05-08T14:11:29.389Z,98670.17
2023-05-08T14:13:59.379Z,98669.45
2023-05-08T14:16:30.157Z,98661.80
2023-05-08T14:19:00.356Z,98667.89
2023-05-08T14:21:31.310Z,98667.13
2023-05-08T14:24:01.708Z,98663.92
2023-05-08T14:26:32.613Z,98663.04
2023-05-08T14:29:02.662Z,98664.61
2023-05-08T14:31:33.211Z,98662.59
2023-05-08T14:34:03.398Z,98664.42
2023-05-08T14:36:33.324Z,98663.30
2023-05-08T14:39:03.678Z,98666.70
2023-05-08T14:41:33.735Z,98667.53
2023-05-08T14:44:03.769Z,98668.40
2023-05-08T14:46:33.839Z,98668.34
2023-05-08T14:49:03.873Z,98671.46
2023-05-08T14:51:33.889Z,98671.95
2023-05-08T14:54:04.263Z,98673.95
2023-05-08T14:59:24.640Z,98680.95
2023-05-08T15:01:54.786Z,98679.55
2023-05-08T15:04:25.188Z,98681.46
2023-05-08T15:06:55.340Z,98685.05
2023-05-08T15:09:25.309Z,98684.05
2023-05-08T15:11:56.027Z,98679.48
2023-05-08T15:14:26.811Z,98680.02
2023-05-08T15:16:57.248Z,98676.10
2023-05-08T15:19:27.301Z,98675.02
2023-05-08T15:21:57.102Z,98673.45
2023-05-08T15:24:27.294Z,98671.98
2023-05-08T15:26:57.273Z,98672.38
2023-05-08T15:29:27.598Z,98671.27
2023-05-08T15:31:57.693Z,98666.59
2023-05-08T15:34:32.374Z,98669.84
2023-05-08T15:37:03.081Z,98674.36
2023-05-08T15:39:35.460Z,98668.63
2023-05-08T15:42:06.461Z,98667.83
2023-05-08T15:47:09.534Z,98665.36
2023-05-08T15:49:39.412Z,98663.31
2023-05-08T15:52:09.633Z,98665.67
2023-05-08T15:54:39.720Z,98661.05
2023-05-08T15:57:09.852Z,98661.52
2023-05-08T15:59:39.956Z,98657.98
2023-05-08T16:02:10.797Z,98659.57
2023-05-08T16:04:40.883Z,98658.98
2023-05-08T16:07:10.939Z,98657.66
2023-05-08T16:09:41.764Z,98653.34
2023-05-08T16:12:11.733Z,98648.20
2023-05-08T16:14:41.733Z,98644.65
2023-05-08T16:17:11.627Z,98639.95
2023-05-08T16:19:41.804Z,98641.17
2023-05-08T16:22:12.103Z,98642.59
2023-05-08T16:24:42.535Z,98645.60
2023-05-08T16:27:12.675Z,98649.36
2023-05-08T16:29:43.111Z,98645.65
2023-05-08T16:32:13.315Z,98644.88
2023-05-08T16:34:44.454Z,98646.41
2023-05-08T16:37:14.428Z,98647.00
2023-05-08T16:39:44.374Z,98648.02
2023-05-08T16:42:14.457Z,98644.92
2023-05-08T16:44:44.591Z,98647.39
2023-05-08T16:47:14.637Z,98644.88
2023-05-08T16:49:45.229Z,98646.26
2023-05-08T16:52:15.097Z,98654.04
2023-05-08T16:54:45.261Z,98652.46
2023-05-08T16:57:15.693Z,98656.63
2023-05-08T16:59:47.171Z,98655.04
2023-05-08T17:02:19.049Z,98652.62
2023-05-08T17:04:50.052Z,98655.45
2023-05-08T17:07:20.740Z,98651.09
2023-05-08T17:09:55.538Z,98650.40
2023-05-08T17:12:25.732Z,98650.46
2023-05-08T17:14:56.673Z,98650.13
2023-05-08T17:17:27.328Z,98648.77
2023-05-08T17:19:59.474Z,98651.89
2023-05-08T17:22:29.633Z,98650.36
2023-05-08T17:24:59.471Z,98651.98
2023-05-08T17:27:29.719Z,98656.50
2023-05-08T17:29:59.868Z,98658.17
2023-05-08T17:32:30.212Z,98661.89
2023-05-08T17:35:01.446Z,98664.83
2023-05-08T17:37:32.050Z,98666.88
2023-05-08T17:40:02.549Z,98667.73
2023-05-08T17:42:33.313Z,98666.15
2023-05-08T17:45:04.604Z,98669.80
2023-05-08T17:47:34.519Z,98667.93
2023-05-08T17:50:06.332Z,98671.82
2023-05-08T17:52:37.184Z,98673.31
2023-05-08T17:55:09.824Z,98678.98
2023-05-08T17:57:40.632Z,98680.20
2023-05-08T18:00:15.163Z,98678.90
2023-05-08T18:02:45.537Z,98674.30
2023-05-08T18:05:15.958Z,98676.48
2023-05-08T18:07:46.012Z,98675.81
2023-05-08T18:10:17.445Z,98676.52
2023-05-08T18:12:48.454Z,98678.23
2023-05-08T18:15:18.463Z,98674.83
2023-05-08T18:17:52.060Z,98674.35
2023-05-08T18:20:23.422Z,98678.39
2023-05-08T18:22:54.085Z,98680.33
2023-05-08T18:25:23.993Z,98683.14
2023-05-08T18:27:54.863Z,98685.57
2023-05-08T18:30:25.854Z,98688.57
2023-05-08T18:32:57.836Z,98688.29
2023-05-08T18:35:28.892Z,98691.79
2023-05-08T18:37:59.291Z,98693.01
2023-05-08T18:40:32.201Z,98697.48
2023-05-08T18:43:05.734Z,98694.90
2023-05-08T18:45:40.653Z,98697.66
2023-05-08T18:48:11.172Z,98698.70
2023-05-08T18:50:41.684Z,98705.27
2023-05-08T18:53:14.700Z,98705.27
2023-05-08T18:55:45.535Z,98704.61
2023-05-08T18:58:17.944Z,98709.98
2023-05-08T19:00:48.842Z,98708.09
2023-05-08T19:03:21.391Z,98712.58
2023-05-08T19:05:55.944Z,98708.80
2023-05-08T19:08:26.575Z,98712.41
2023-05-08T19:10:57.745Z,98713.96
2023-05-08T19:13:28.133Z,98716.02
2023-05-08T19:15:58.714Z,98716.20
2023-05-08T19:18:29.269Z,98714.31
2023-05-08T19:20:59.298Z,98712.92
2023-05-08T19:23:29.348Z,98714.12
2023-05-08T19:25:59.378Z,98714.64
2023-05-08T19:28:30.130Z,98715.66
2023-05-08T19:31:01.535Z,98715.48
2023-05-08T19:33:31.932Z,98709.61
2023-05-08T19:36:02.040Z,98712.54
2023-05-08T19:38:32.382Z,98712.52
2023-05-08T19:41:02.526Z,98709.10
2023-05-08T19:43:33.234Z,98705.48
2023-05-08T19:46:03.479Z,98707.02
2023-05-08T19:48:33.599Z,98704.11
2023-05-08T19:51:08.544Z,98700.67
2023-05-08T19:53:40.136Z,98703.77
2023-05-08T19:56:11.884Z,98704.60
2023-05-08T19:58:41.750Z,98704.23
2023-05-08T20:01:12.063Z,98700.27
2023-05-08T20:03:42.350Z,98696.78
2023-05-08T20:06:13.036Z,98696.58
2023-05-08T20:08:44.201Z,98695.01
2023-05-08T20:11:14.311Z,98692.05
2023-05-08T20:13:44.935Z,98686.89
2023-05-08T20:16:14.891Z,98691.52
2023-05-08T20:18:52.141Z,98687.59
2023-05-08T20:21:22.311Z,98687.45
2023-05-08T20:23:52.823Z,98687.23
2023-05-08T20:26:23.283Z,98684.48
2023-05-08T20:28:53.418Z,98683.96
2023-05-08T20:31:25.427Z,98683.61
2023-05-08T20:33:55.191Z,98684.48
2023-05-08T20:36:25.267Z,98680.70
2023-05-08T20:38:55.227Z,98678.29
2023-05-08T20:41:25.154Z,98680.86
2023-05-08T20:43:55.206Z,98679.43
2023-05-08T20:46:25.552Z,98679.39
2023-05-08T20:48:55.506Z,98678.88
2023-05-08T20:51:25.607Z,98675.62
2023-05-08T20:53:55.870Z,98675.95
2023-05-08T20:56:26.131Z,98678.84
2023-05-08T20:58:56.041Z,98678.11
2023-05-08T21:01:26.805Z,98678.11
2023-05-08T21:03:56.644Z,98675.48
2023-05-08T21:06:26.773Z,98673.55
2023-05-08T21:08:57.540Z,98673.81
2023-05-08T21:11:28.442Z,98673.73
2023-05-08T21:13:58.516Z,98674.40
2023-05-08T21:16:29.254Z,98671.50
2023-05-08T21:18:59.248Z,98671.49
2023-05-08T21:21:29.246Z,98668.08
2023-05-08T21:23:59.279Z,98667.24
2023-05-08T21:26:30.033Z,98666.23
2023-05-08T21:29:02.097Z,98662.80
2023-05-08T21:31:32.579Z,98662.48
2023-05-08T21:34:02.756Z,98653.90
2023-05-08T21:36:34.882Z,98652.37
2023-05-08T21:39:04.933Z,98655.98
2023-05-08T21:41:34.940Z,98653.95
2023-05-08T21:44:10.113Z,98653.62
2023-05-08T21:46:40.994Z,98646.92
2023-05-08T21:49:12.079Z,98653.27
2023-05-08T21:51:42.220Z,98655.51
2023-05-08T21:54:12.564Z,98655.50
2023-05-08T21:56:42.559Z,98656.20
2023-05-08T21:59:12.364Z,98657.05
2023-05-08T22:01:42.311Z,98652.60
2023-05-08T22:04:13.138Z,98650.02
2023-05-08T22:06:44.226Z,98646.40
2023-05-08T22:09:15.037Z,98642.98
2023-05-08T22:11:45.214Z,98638.69
2023-05-08T22:14:15.256Z,98637.14
2023-05-08T22:16:45.146Z,98635.23
2023-05-08T22:19:15.114Z,98632.98
2023-05-08T22:21:44.926Z,98628.33
2023-05-08T22:24:15.797Z,98628.66
2023-05-08T22:26:45.724Z,98626.61
2023-05-08T22:29:16.340Z,98629.02
2023-05-08T22:31:47.872Z,98629.19
2023-05-08T22:34:18.014Z,98624.73
2023-05-08T22:36:48.095Z,98623.70
2023-05-08T22:39:18.471Z,98623.70
2023-05-08T22:41:48.756Z,98622.14
2023-05-08T22:44:19.058Z,98618.02
2023-05-08T22:46:49.192Z,98620.75
2023-05-08T22:49:19.503Z,98618.17
2023-05-08T22:51:50.115Z,98618.00
2023-05-08T22:54:20.643Z,98620.91
2023-05-08T22:56:50.643Z,98625.52
2023-05-08T22:59:21.045Z,98622.91
2023-05-08T23:01:50.923Z,98624.41
2023-05-08T23:04:21.260Z,98619.95
2023-05-08T23:06:51.330Z,98619.08
2023-05-08T23:09:22.707Z,98619.09
2023-05-08T23:11:52.829Z,98623.89
2023-05-08T23:14:22.825Z,98623.52
2023-05-08T23:16:52.909Z,98622.66
2023-05-08T23:19:22.949Z,98623.67
2023-05-08T23:21:52.810Z,98623.48
2023-05-08T23:24:23.112Z,98623.09
2023-05-08T23:26:53.164Z,98628.02
2023-05-08T23:29:23.265Z,98625.94
2023-05-08T23:31:53.154Z,98623.34
2023-05-08T23:34:23.390Z,98616.48
2023-05-08T23:36:53.490Z,98613.71
2023-05-08T23:39:23.588Z,98613.70
2023-05-08T23:41:54.027Z,98611.30
2023-05-08T23:44:24.344Z,98613.35
2023-05-08T23:46:54.653Z,98610.23
2023-05-08T23:49:25.170Z,98605.22
2023-05-08T23:51:55.544Z,98599.67
2023-05-08T23:54:26.058Z,98599.15
2023-05-08T23:56:56.293Z,98593.48
2023-05-08T23:59:26.691Z,98592.63
